Airfield :







YOU CAN JOIN US ON...

 
LOGIN :

Register | Disclaimer

   EN    FR    IT 

 









Legend :    VFR   Marginal VFR   IFR   Intensive IFR   Very Intensive IFR
Visi :
Ceiling :
>= 8 km
>= 3000ft
5 to 8 km
1000 to 3000 ft
1500m to 5 km
500 to 1000 ft
800 to 1500m
200 to 500 ft
< 800m
< 200 ft
Symbols :   Thunderstorms  Fog  Heavy snow  Heavy precipitations  Wind > 20 kt






- Airport Elevation : 477 ft
- IATA code : YHZ


CYHZ - Halifax Stanfield Int.

CURRENT METAR :
  • 170400Z 32011KT 15SM SKC M05/M10 A3038 RMK SLP296

EXPIRED METARs :
  • 170300Z 30007KT 15SM SKC M05/M10 A3036 RMK SLP291
  • 170200Z 31009G15KT 15SM SKC M05/M11 A3035 RMK SLP287

TAF TAF CYHZ
Valid from the 17 at 03:00 until the 18 at 00:00 UTC


170238Z 1703/1724 31012KT P6SM SKC
BECMG 1706/1708 34008KT
BECMG 1716/1718 06005KT RMK NXT FCST BY 170600Z



MET'MAP, your aeronautical weather chart ! - Copyright ORBIFLY December 2007 - Disclaimer

ORBIFLY MET'MAP TEAM :

Programming & Development : Alexandra Zaïnal
Concept & Development : Baudouin d'Aumeries
Co-Development & Prog : Marc-Olivier Méhu
Technical & hardware support : Manuel Goepfert

Contact : metmap@orbifly.com




SOURCES & CREDITS :

   NOAA